Time;durP1;ratioP1;P1;durP2;ratioP2;P2;SDS_P1;SDS_P2;PMS_P1;PMS_P2;Temp;Humidity;BMP_temperature;BMP_pressure;BME280_temperature;BME280_humidity;BME280_pressure;Samples;Min_cycle;Max_cycle;Signal;HPM_P1;HPM_P2
2022/01/18 00:01:16;;;;;;;41.37;23.63;;;2.60;99.90;;;;;;5083058;28;20204;-71
2022/01/18 00:03:44;;;;;;;40.87;23.63;;;2.50;99.90;;;;;;5083592;28;20221;-73
2022/01/18 00:06:11;;;;;;;42.10;24.83;;;2.40;99.90;;;;;;5082208;28;20205;-71
2022/01/18 00:08:38;;;;;;;45.30;25.13;;;2.40;99.90;;;;;;5081033;28;20227;-71
2022/01/18 00:11:04;;;;;;;45.17;25.17;;;2.30;99.90;;;;;;5080626;28;20541;-71
2022/01/18 00:13:40;;;;;;;46.50;25.67;;;2.40;99.90;;;;;;5080438;28;20201;-71
2022/01/18 00:16:24;;;;;;;42.60;24.33;;;2.30;99.90;;;;;;5081488;28;20235;-71
2022/01/18 00:18:52;;;;;;;46.90;26.00;;;2.20;99.90;;;;;;5082555;28;20633;-71
2022/01/18 00:24:03;;;;;;;48.87;26.07;;;2.00;99.90;;;;;;5080853;28;20243;-71
2022/01/18 00:26:32;;;;;;;46.73;27.00;;;2.00;99.90;;;;;;5080507;28;20201;-71
2022/01/18 00:29:04;;;;;;;47.10;26.07;;;2.00;99.90;;;;;;5081058;28;20205;-70
2022/01/18 00:31:45;;;;;;;52.13;27.53;;;2.10;99.90;;;;;;5080972;28;20192;-70
2022/01/18 00:34:17;;;;;;;52.17;27.27;;;2.10;99.90;;;;;;5081061;28;20203;-71
2022/01/18 00:36:54;;;;;;;49.80;28.23;;;2.10;99.90;;;;;;5081539;28;20246;-71
2022/01/18 00:39:21;;;;;;;52.00;27.70;;;2.10;99.90;;;;;;5081095;28;20204;-71
2022/01/18 00:41:47;;;;;;;50.50;27.37;;;2.10;99.90;;;;;;5063446;28;20561;-70
2022/01/18 00:44:15;;;;;;;52.87;27.33;;;2.10;99.90;;;;;;5080675;28;20301;-72
2022/01/18 00:46:45;;;;;;;54.70;28.07;;;2.10;99.90;;;;;;5080714;28;20751;-71
2022/01/18 00:49:13;;;;;;;52.23;26.00;;;2.10;99.90;;;;;;5081084;28;20205;-71
2022/01/18 00:51:41;;;;;;;51.30;25.70;;;2.10;99.90;;;;;;5082275;28;20193;-71
2022/01/18 00:54:10;;;;;;;46.40;25.03;;;2.20;99.90;;;;;;5082349;28;20198;-71
2022/01/18 00:56:41;;;;;;;47.30;25.57;;;2.20;99.90;;;;;;5081370;28;20204;-71
2022/01/18 00:59:08;;;;;;;44.23;24.43;;;2.30;99.90;;;;;;5080357;28;20246;-71
2022/01/18 01:01:36;;;;;;;45.97;24.47;;;2.30;99.90;;;;;;5080781;28;20201;-71
2022/01/18 01:04:04;;;;;;;44.77;24.03;;;2.30;99.90;;;;;;5080231;28;20906;-71
2022/01/18 01:06:32;;;;;;;45.50;25.67;;;2.40;99.90;;;;;;5080450;28;20197;-70
2022/01/18 01:08:59;;;;;;;45.73;25.07;;;2.40;99.90;;;;;;5081867;28;20224;-73
2022/01/18 01:11:26;;;;;;;43.40;25.17;;;2.40;99.90;;;;;;5081661;28;20319;-70
2022/01/18 01:13:54;;;;;;;40.53;22.87;;;2.40;99.90;;;;;;5081280;28;20197;-71
2022/01/18 01:16:46;;;;;;;45.03;23.63;;;2.40;99.90;;;;;;5080150;28;20232;-71
2022/01/18 01:19:28;;;;;;;48.10;25.40;;;2.40;99.90;;;;;;5081946;28;20246;-70
2022/01/18 01:33:46;;;;;;;41.57;24.10;;;2.50;99.90;;;;;;5080927;28;20290;-72
2022/01/18 01:44:37;;;;;;;43.93;24.33;;;2.50;99.90;;;;;;5069604;28;20235;-71
2022/01/18 01:47:05;;;;;;;46.47;25.10;;;2.50;99.90;;;;;;5081025;28;20200;-71
2022/01/18 01:49:32;;;;;;;50.17;26.47;;;2.40;99.90;;;;;;5080681;28;20583;-71
2022/01/18 01:52:03;;;;;;;44.67;24.23;;;2.50;99.90;;;;;;5081157;28;20223;-71
2022/01/18 01:54:30;;;;;;;48.73;23.90;;;2.50;99.90;;;;;;5079986;28;20193;-71
2022/01/18 01:56:57;;;;;;;44.00;24.83;;;2.50;99.90;;;;;;5081455;28;20246;-74
2022/01/18 01:59:23;;;;;;;49.20;24.93;;;2.50;99.90;;;;;;5080720;28;20234;-71
2022/01/18 02:01:50;;;;;;;44.97;25.00;;;2.50;99.90;;;;;;5080743;28;20197;-72
2022/01/18 02:04:18;;;;;;;47.73;24.80;;;2.50;99.90;;;;;;5081140;28;20224;-72
2022/01/18 02:06:45;;;;;;;45.50;24.50;;;2.50;99.90;;;;;;5081311;28;20242;-72
2022/01/18 02:09:13;;;;;;;49.23;25.53;;;2.50;99.90;;;;;;5080840;28;20649;-73
2022/01/18 02:11:40;;;;;;;49.03;25.90;;;2.50;99.90;;;;;;5081887;28;20725;-71
2022/01/18 02:14:12;;;;;;;50.37;26.07;;;2.50;99.90;;;;;;5081714;28;20593;-72
2022/01/18 02:22:06;;;;;;;47.77;25.40;;;2.60;99.90;;;;;;5039853;28;20739;-71
2022/01/18 02:24:33;;;;;;;49.80;26.17;;;2.60;99.90;;;;;;5039416;28;20283;-72
2022/01/18 02:26:59;;;;;;;50.73;26.07;;;2.60;99.90;;;;;;5038655;28;20198;-72
2022/01/18 02:29:26;;;;;;;47.37;25.33;;;2.60;99.90;;;;;;5038296;28;20225;-72
2022/01/18 02:31:54;;;;;;;46.53;25.47;;;2.60;99.90;;;;;;5039107;28;20199;-72
2022/01/18 02:34:22;;;;;;;51.67;27.30;;;2.60;99.90;;;;;;5038745;28;20209;-71
2022/01/18 02:36:49;;;;;;;49.47;25.77;;;2.60;99.90;;;;;;5038318;28;20211;-73
2022/01/18 02:39:20;;;;;;;46.43;25.23;;;2.60;99.90;;;;;;5038775;28;20202;-72
2022/01/18 02:41:53;;;;;;;53.07;26.13;;;2.60;99.90;;;;;;5039322;28;20273;-72
2022/01/18 02:44:20;;;;;;;48.00;25.37;;;2.70;99.90;;;;;;5038033;28;20590;-72
2022/01/18 02:46:47;;;;;;;47.50;25.13;;;2.60;99.90;;;;;;5038327;28;20258;-72
2022/01/18 02:49:14;;;;;;;50.97;26.10;;;2.60;99.90;;;;;;5037437;28;20202;-71
2022/01/18 02:51:40;;;;;;;55.83;26.67;;;2.60;99.90;;;;;;5038284;28;20244;-72
2022/01/18 02:54:09;;;;;;;51.87;25.77;;;2.70;99.90;;;;;;5038400;28;20195;-72
2022/01/18 02:56:41;;;;;;;51.80;25.30;;;2.60;99.90;;;;;;5037666;28;20558;-71
2022/01/18 02:59:16;;;;;;;48.13;26.20;;;2.60;99.90;;;;;;5038558;28;20254;-71
2022/01/18 03:04:28;;;;;;;54.67;27.10;;;2.50;99.90;;;;;;5038656;28;20232;-70
2022/01/18 03:06:54;;;;;;;60.30;28.50;;;2.40;99.90;;;;;;5037781;28;20195;-71
2022/01/18 03:09:21;;;;;;;56.70;27.80;;;2.40;99.90;;;;;;5037620;28;20198;-70
2022/01/18 03:11:49;;;;;;;55.20;27.30;;;2.40;99.90;;;;;;5038410;28;20232;-71
2022/01/18 03:14:16;;;;;;;58.93;29.03;;;2.40;99.90;;;;;;5039901;28;20225;-71
2022/01/18 03:16:43;;;;;;;61.93;28.87;;;2.40;99.90;;;;;;5078680;28;20254;-71
2022/01/18 03:19:09;;;;;;;62.70;28.10;;;2.40;99.90;;;;;;5078822;28;20251;-71
2022/01/18 03:21:36;;;;;;;63.47;28.73;;;2.40;99.90;;;;;;5078881;28;20197;-71
2022/01/18 03:24:31;;;;;;;59.67;28.17;;;2.40;99.90;;;;;;5079131;28;20240;-71
2022/01/18 03:29:49;;;;;;;59.87;28.43;;;2.40;99.90;;;;;;5023194;28;20191;-71
2022/01/18 03:32:16;;;;;;;62.37;28.30;;;2.30;99.90;;;;;;5078249;28;20201;-71
2022/01/18 03:34:42;;;;;;;70.07;29.00;;;2.40;99.90;;;;;;5078332;28;20228;-71
2022/01/18 03:37:09;;;;;;;58.40;28.13;;;2.30;99.90;;;;;;5078424;28;20205;-71
2022/01/18 03:39:36;;;;;;;63.07;27.43;;;2.30;99.90;;;;;;5077983;28;20197;-71
2022/01/18 03:42:33;;;;;;;57.10;27.40;;;2.30;99.90;;;;;;5077570;28;20197;-71
2022/01/18 03:45:02;;;;;;;50.80;26.07;;;2.30;99.90;;;;;;5077857;28;20232;-71
2022/01/18 03:47:29;;;;;;;57.43;27.13;;;2.30;99.90;;;;;;5079049;28;20291;-71
2022/01/18 03:49:56;;;;;;;54.10;27.03;;;2.30;99.90;;;;;;5078499;28;20196;-72
2022/01/18 03:52:23;;;;;;;57.07;26.67;;;2.30;99.90;;;;;;5076337;28;20605;-71
2022/01/18 03:54:50;;;;;;;62.93;27.13;;;2.30;99.90;;;;;;5077046;28;20254;-71
2022/01/18 03:57:18;;;;;;;69.77;29.20;;;2.30;99.90;;;;;;5079680;28;20659;-71
2022/01/18 03:59:46;;;;;;;65.27;28.67;;;2.30;99.90;;;;;;5081504;28;20227;-71
2022/01/18 04:02:12;;;;;;;68.80;29.70;;;2.30;99.90;;;;;;5081257;28;20204;-71
2022/01/18 04:04:40;;;;;;;63.17;28.43;;;2.30;99.90;;;;;;5081324;28;20251;-71
2022/01/18 04:07:07;;;;;;;67.40;29.00;;;2.30;99.90;;;;;;5081263;28;20254;-71
2022/01/18 04:09:34;;;;;;;69.10;27.83;;;2.30;99.90;;;;;;5081479;28;20205;-71
2022/01/18 04:12:01;;;;;;;68.57;28.23;;;2.30;99.90;;;;;;5081083;28;20223;-72
2022/01/18 04:14:29;;;;;;;70.90;27.90;;;2.30;99.90;;;;;;5080487;28;20250;-71
2022/01/18 04:17:03;;;;;;;61.97;27.57;;;2.30;99.90;;;;;;5080771;28;20201;-72
2022/01/18 04:27:52;;;;;;;65.03;27.90;;;2.20;99.90;;;;;;5081309;28;20286;-72
2022/01/18 04:30:22;;;;;;;64.00;27.60;;;2.20;99.90;;;;;;5081170;28;20200;-73
2022/01/18 04:32:48;;;;;;;64.27;27.50;;;2.20;99.90;;;;;;5080362;28;20208;-71
2022/01/18 04:35:15;;;;;;;61.77;27.93;;;2.20;99.90;;;;;;5080711;28;20212;-71
2022/01/18 04:37:42;;;;;;;60.30;27.57;;;2.20;99.90;;;;;;5081366;28;20201;-71
2022/01/18 04:40:14;;;;;;;59.67;26.20;;;2.20;99.90;;;;;;5082399;28;20201;-72
2022/01/18 04:42:59;;;;;;;51.30;25.73;;;2.20;99.90;;;;;;5080834;28;20201;-71
2022/01/18 04:48:29;;;;;;;61.70;25.67;;;2.10;99.90;;;;;;5080957;28;20199;-71
2022/01/18 04:50:58;;;;;;;56.77;24.57;;;2.10;99.90;;;;;;5081155;28;20196;-71
2022/01/18 04:53:26;;;;;;;54.80;25.40;;;2.10;99.90;;;;;;5080842;28;20205;-75
2022/01/18 04:55:56;;;;;;;56.50;26.47;;;2.10;99.90;;;;;;5081563;28;20237;-74
2022/01/18 04:58:24;;;;;;;60.53;26.73;;;2.10;99.90;;;;;;5081212;28;20243;-73
2022/01/18 05:00:54;;;;;;;58.47;26.27;;;2.10;99.90;;;;;;5081104;28;20231;-71
2022/01/18 05:03:21;;;;;;;56.93;24.97;;;2.10;99.90;;;;;;5081308;28;20200;-71
2022/01/18 05:05:51;;;;;;;57.20;25.47;;;2.10;99.90;;;;;;5080853;28;20224;-72
2022/01/18 05:08:18;;;;;;;54.23;25.67;;;2.10;99.90;;;;;;5080933;28;20296;-71
2022/01/18 05:10:50;;;;;;;58.53;25.97;;;2.10;99.90;;;;;;5081819;28;20201;-70
2022/01/18 05:13:31;;;;;;;56.97;25.10;;;2.10;99.90;;;;;;5081607;28;20204;-71
2022/01/18 05:16:14;;;;;;;53.50;25.63;;;2.20;99.90;;;;;;5081176;28;20239;-71
2022/01/18 05:19:04;;;;;;;54.87;25.07;;;2.10;99.90;;;;;;5080980;28;20181;-70
2022/01/18 05:21:35;;;;;;;51.23;24.73;;;2.20;99.90;;;;;;5080895;28;20208;-71
2022/01/18 05:24:01;;;;;;;57.63;25.13;;;2.20;99.90;;;;;;5080083;28;20203;-70
2022/01/18 05:26:29;;;;;;;59.03;25.70;;;2.30;99.90;;;;;;5080671;28;20269;-71
2022/01/18 05:28:57;;;;;;;52.77;22.07;;;2.30;99.90;;;;;;5081897;28;20283;-71
2022/01/18 05:31:25;;;;;;;46.13;21.03;;;2.30;99.90;;;;;;5081689;28;20197;-70
2022/01/18 05:33:52;;;;;;;43.60;20.30;;;2.40;99.90;;;;;;5081124;28;20197;-70
2022/01/18 05:36:18;;;;;;;39.20;18.70;;;2.40;99.90;;;;;;5080569;28;20259;-70
2022/01/18 05:38:45;;;;;;;44.70;21.57;;;2.30;99.90;;;;;;5081051;28;20234;-70
2022/01/18 05:41:12;;;;;;;49.90;22.53;;;2.30;99.90;;;;;;5080017;28;20197;-71
2022/01/18 05:43:39;;;;;;;48.43;22.53;;;2.30;99.90;;;;;;5080483;28;20197;-70
2022/01/18 05:46:06;;;;;;;50.23;23.30;;;2.30;99.90;;;;;;5079891;28;20250;-71
2022/01/18 05:48:34;;;;;;;47.67;21.90;;;2.30;99.90;;;;;;5080839;28;20194;-71
2022/01/18 05:51:01;;;;;;;50.53;22.23;;;2.20;99.90;;;;;;5081045;28;20230;-71
2022/01/18 05:53:28;;;;;;;47.83;22.67;;;2.20;99.90;;;;;;5077856;28;20212;-70
2022/01/18 05:55:55;;;;;;;50.83;22.87;;;2.20;99.90;;;;;;5079985;28;20203;-71
2022/01/18 05:58:22;;;;;;;47.23;20.53;;;2.20;99.90;;;;;;5080480;28;20220;-71
2022/01/18 06:00:52;;;;;;;46.27;21.00;;;2.20;99.90;;;;;;5077626;28;20193;-71
2022/01/18 06:03:26;;;;;;;43.33;20.67;;;2.20;99.90;;;;;;5079425;28;20208;-71
2022/01/18 06:08:39;;;;;;;40.00;19.87;;;2.20;99.90;;;;;;5079157;28;20272;-70
2022/01/18 06:11:06;;;;;;;43.57;18.90;;;2.10;99.90;;;;;;5078968;28;20201;-70
2022/01/18 06:13:33;;;;;;;39.77;19.30;;;2.20;99.90;;;;;;5078583;28;20201;-73
2022/01/18 06:15:59;;;;;;;46.50;20.77;;;2.10;99.90;;;;;;5080018;28;20663;-70
2022/01/18 06:18:26;;;;;;;41.87;19.57;;;2.10;99.90;;;;;;5063932;28;20193;-72
2022/01/18 06:20:55;;;;;;;38.47;19.97;;;2.10;99.90;;;;;;5075546;28;20242;-72
2022/01/18 06:23:22;;;;;;;46.97;21.17;;;2.10;99.90;;;;;;5081261;28;20206;-71
2022/01/18 06:25:49;;;;;;;41.97;20.67;;;2.10;99.90;;;;;;5080780;28;20236;-71
2022/01/18 06:28:15;;;;;;;44.27;20.57;;;2.00;99.90;;;;;;5081497;28;20197;-72
2022/01/18 06:30:42;;;;;;;42.07;20.63;;;2.00;99.90;;;;;;5080465;28;20226;-72
2022/01/18 06:33:09;;;;;;;40.97;20.47;;;2.00;99.90;;;;;;5081928;28;20197;-72
2022/01/18 06:35:35;;;;;;;36.00;19.23;;;1.90;99.90;;;;;;5081706;28;20205;-73
2022/01/18 06:38:03;;;;;;;32.60;17.40;;;1.90;99.90;;;;;;5075348;28;20202;-73
2022/01/18 06:40:30;;;;;;;45.67;18.03;;;1.90;99.90;;;;;;5062306;28;20228;-72
2022/01/18 06:42:57;;;;;;;43.13;17.40;;;1.90;99.90;;;;;;5064068;28;20256;-72
2022/01/18 06:45:24;;;;;;;39.97;17.10;;;1.90;99.90;;;;;;5079253;28;20224;-72
2022/01/18 06:47:50;;;;;;;41.90;18.87;;;1.90;99.90;;;;;;5083258;28;20332;-71
2022/01/18 06:50:17;;;;;;;38.77;17.93;;;1.90;99.90;;;;;;5069531;28;20197;-76
2022/01/18 06:52:44;;;;;;;42.53;18.60;;;1.90;99.90;;;;;;5077122;28;20205;-72
2022/01/18 06:55:13;;;;;;;45.87;19.67;;;1.90;99.90;;;;;;5082172;28;20326;-73
2022/01/18 06:57:40;;;;;;;37.83;18.23;;;1.90;99.90;;;;;;5083102;28;20197;-72
2022/01/18 07:00:09;;;;;;;51.80;21.60;;;1.90;99.90;;;;;;5072637;28;20197;-72
2022/01/18 07:02:36;;;;;;;48.17;20.30;;;1.90;99.90;;;;;;5076272;28;20254;-72
2022/01/18 07:05:03;;;;;;;52.67;20.03;;;2.00;99.90;;;;;;5082195;28;20247;-72
2022/01/18 07:07:30;;;;;;;50.37;22.10;;;1.90;99.90;;;;;;5076898;28;20186;-72
2022/01/18 07:09:57;;;;;;;51.67;21.67;;;1.90;99.90;;;;;;5062726;28;20327;-72
2022/01/18 07:12:25;;;;;;;50.80;22.47;;;1.90;99.90;;;;;;5062552;28;20201;-72
2022/01/18 07:14:52;;;;;;;54.53;21.97;;;1.90;99.90;;;;;;5063020;28;20221;-73
2022/01/18 07:17:19;;;;;;;49.30;21.30;;;1.80;99.90;;;;;;5063000;28;20205;-72
2022/01/18 07:19:46;;;;;;;56.43;23.17;;;1.90;99.90;;;;;;5074358;28;20206;-73
2022/01/18 07:22:12;;;;;;;57.80;22.60;;;1.80;99.90;;;;;;5082086;28;20197;-73
2022/01/18 07:24:42;;;;;;;51.93;22.20;;;1.90;99.90;;;;;;5081651;28;20201;-73
2022/01/18 07:27:10;;;;;;;48.03;21.83;;;1.90;99.90;;;;;;5081987;28;20205;-73
2022/01/18 07:29:41;;;;;;;51.47;21.50;;;1.90;99.90;;;;;;5082138;28;20197;-72
2022/01/18 07:32:08;;;;;;;46.73;21.10;;;1.90;99.90;;;;;;5086144;28;20205;-73
2022/01/18 07:34:40;;;;;;;47.67;21.27;;;1.90;99.90;;;;;;5085497;28;20205;-72
2022/01/18 07:37:07;;;;;;;45.90;20.47;;;1.80;99.90;;;;;;5086763;28;20197;-73
2022/01/18 07:39:34;;;;;;;53.20;21.67;;;1.80;99.90;;;;;;5085638;28;20197;-73
2022/01/18 07:42:01;;;;;;;50.03;21.37;;;1.80;99.90;;;;;;5086073;28;20226;-72
2022/01/18 07:44:29;;;;;;;58.00;22.23;;;1.70;99.90;;;;;;5086023;28;20201;-73
2022/01/18 07:46:57;;;;;;;41.63;20.27;;;1.70;99.90;;;;;;5085413;28;20469;-73
2022/01/18 07:49:27;;;;;;;41.47;20.33;;;1.80;99.90;;;;;;5086510;28;20238;-73
2022/01/18 07:51:54;;;;;;;50.47;26.13;;;1.80;99.90;;;;;;5085933;28;20208;-73
2022/01/18 07:54:20;;;;;;;48.13;23.03;;;1.90;99.90;;;;;;5072915;28;20205;-72
2022/01/18 07:56:47;;;;;;;46.60;22.40;;;2.00;99.90;;;;;;5081684;28;20197;-74
2022/01/18 07:59:14;;;;;;;44.40;22.30;;;2.10;99.90;;;;;;5084564;28;20194;-72
2022/01/18 08:01:42;;;;;;;38.57;19.67;;;2.20;99.90;;;;;;5075384;28;20214;-73
2022/01/18 08:04:10;;;;;;;43.10;19.40;;;2.30;99.90;;;;;;5083330;28;20284;-74
2022/01/18 08:06:37;;;;;;;35.17;19.13;;;2.30;99.90;;;;;;5073632;28;20259;-73
2022/01/18 08:09:04;;;;;;;40.33;18.83;;;2.30;99.90;;;;;;5078337;28;20259;-73
2022/01/18 08:11:31;;;;;;;35.33;18.63;;;2.40;99.90;;;;;;5078664;28;20205;-73
2022/01/18 08:14:00;;;;;;;34.37;18.50;;;2.30;99.90;;;;;;5077165;28;20194;-72
2022/01/18 08:16:48;;;;;;;37.03;19.20;;;2.30;99.90;;;;;;5084621;28;20763;-74
2022/01/18 08:19:17;;;;;;;40.67;19.73;;;2.20;99.90;;;;;;5081540;28;20209;-73
2022/01/18 08:21:44;;;;;;;42.37;19.20;;;2.20;99.90;;;;;;5081751;28;20251;-73
2022/01/18 08:24:11;;;;;;;36.90;18.50;;;2.20;99.90;;;;;;5078240;28;20204;-73
2022/01/18 08:26:38;;;;;;;38.37;19.27;;;2.40;99.90;;;;;;5078580;28;20240;-73
2022/01/18 08:29:04;;;;;;;35.67;19.17;;;2.60;99.90;;;;;;5083961;28;20197;-78
2022/01/18 08:31:31;;;;;;;35.33;18.47;;;2.70;99.90;;;;;;5085568;28;20235;-72
2022/01/18 08:33:58;;;;;;;31.50;17.90;;;2.70;99.90;;;;;;5085253;28;20197;-72
2022/01/18 08:36:26;;;;;;;29.83;14.60;;;2.70;99.90;;;;;;5086938;28;20223;-72
2022/01/18 08:38:53;;;;;;;27.83;16.67;;;2.80;99.90;;;;;;5084792;28;20197;-72
2022/01/18 08:41:20;;;;;;;28.77;13.63;;;2.80;99.90;;;;;;5074590;28;20217;-73
2022/01/18 08:43:47;;;;;;;25.63;13.73;;;2.80;99.90;;;;;;5084172;28;20321;-72
2022/01/18 08:46:14;;;;;;;24.17;15.20;;;2.90;99.90;;;;;;5085578;28;20229;-73
2022/01/18 08:48:41;;;;;;;33.27;14.97;;;3.10;99.90;;;;;;5087124;28;20338;-73
2022/01/18 08:51:08;;;;;;;25.17;12.23;;;3.30;99.90;;;;;;5080157;28;20228;-73
2022/01/18 08:53:37;;;;;;;24.10;10.87;;;3.30;99.90;;;;;;5085858;28;20199;-73
2022/01/18 08:56:04;;;;;;;16.27;9.97;;;3.20;99.90;;;;;;5085860;28;20199;-72
2022/01/18 08:58:32;;;;;;;20.50;11.83;;;3.20;99.90;;;;;;5083854;28;20252;-72
2022/01/18 09:00:59;;;;;;;18.80;10.90;;;3.20;99.90;;;;;;5084229;28;20230;-73
2022/01/18 09:03:26;;;;;;;18.70;10.23;;;3.30;99.90;;;;;;5085669;28;20199;-72
2022/01/18 09:05:53;;;;;;;18.50;10.07;;;3.30;99.90;;;;;;5081829;28;20225;-72
2022/01/18 09:08:21;;;;;;;17.77;8.43;;;3.20;99.90;;;;;;5079821;28;20202;-73
2022/01/18 09:10:53;;;;;;;14.93;8.10;;;3.20;99.90;;;;;;5078457;28;20287;-73
2022/01/18 09:13:22;;;;;;;17.70;9.20;;;3.10;99.90;;;;;;5075512;28;20213;-72
2022/01/18 09:15:49;;;;;;;14.40;8.40;;;3.20;99.90;;;;;;5082155;28;20312;-72
2022/01/18 09:18:16;;;;;;;17.73;10.40;;;3.20;99.90;;;;;;5079942;28;20215;-72
2022/01/18 09:20:43;;;;;;;17.70;8.13;;;3.20;99.90;;;;;;5083345;28;20225;-72
2022/01/18 09:23:11;;;;;;;14.00;8.30;;;3.20;99.90;;;;;;5083356;28;20199;-72
2022/01/18 09:25:37;;;;;;;14.37;7.70;;;3.30;99.90;;;;;;5081628;28;20225;-73
2022/01/18 09:28:06;;;;;;;16.57;9.13;;;3.50;99.90;;;;;;5081218;28;20210;-72
2022/01/18 09:30:34;;;;;;;17.00;9.13;;;3.60;99.90;;;;;;5076316;28;20196;-73
2022/01/18 09:33:01;;;;;;;16.77;8.30;;;3.70;99.90;;;;;;5079978;28;20199;-72
2022/01/18 09:35:28;;;;;;;12.57;6.50;;;3.70;99.90;;;;;;5083703;28;20205;-73
2022/01/18 09:37:55;;;;;;;13.50;6.50;;;3.60;99.90;;;;;;5082533;28;20204;-73
2022/01/18 09:40:23;;;;;;;10.20;5.30;;;3.90;99.90;;;;;;5084215;28;20220;-73
2022/01/18 09:42:54;;;;;;;14.30;5.37;;;4.20;99.90;;;;;;5084202;28;20212;-73
2022/01/18 09:45:24;;;;;;;10.77;5.10;;;4.70;99.90;;;;;;5084788;28;20200;-73
2022/01/18 09:47:53;;;;;;;13.57;4.47;;;4.70;99.90;;;;;;5069928;28;20207;-73
2022/01/18 09:50:23;;;;;;;7.53;5.07;;;4.70;99.90;;;;;;5083989;28;20193;-71
2022/01/18 09:52:53;;;;;;;14.10;5.20;;;4.60;99.90;;;;;;5082964;28;20201;-73
2022/01/18 09:55:22;;;;;;;8.80;5.37;;;4.70;99.90;;;;;;5082433;28;20219;-72
2022/01/18 09:57:49;;;;;;;6.20;4.80;;;4.80;99.90;;;;;;5081705;28;20197;-72
2022/01/18 10:00:17;;;;;;;8.20;4.70;;;5.00;99.90;;;;;;5079546;28;20201;-73
2022/01/18 10:02:45;;;;;;;8.67;4.70;;;5.20;99.90;;;;;;5076403;28;20599;-73
2022/01/18 10:05:20;;;;;;;6.60;4.10;;;5.70;99.90;;;;;;5075084;28;20201;-73
2022/01/18 10:07:56;;;;;;;10.40;4.80;;;6.30;99.90;;;;;;5073216;28;20607;-71
2022/01/18 10:10:38;;;;;;;6.50;3.40;;;6.80;99.90;;;;;;5073369;28;20201;-72
2022/01/18 10:13:05;;;;;;;5.47;3.50;;;6.60;99.90;;;;;;5073131;28;20599;-73
2022/01/18 10:15:32;;;;;;;6.10;4.20;;;6.80;99.90;;;;;;5073009;28;20229;-72
2022/01/18 10:18:09;;;;;;;6.07;4.03;;;7.00;99.90;;;;;;5073107;28;20243;-72
2022/01/18 10:20:51;;;;;;;6.53;3.80;;;6.80;99.90;;;;;;5072907;28;20212;-73
2022/01/18 10:23:22;;;;;;;5.80;3.80;;;6.90;99.90;;;;;;5073131;28;20200;-73
2022/01/18 10:25:49;;;;;;;4.70;3.43;;;7.10;99.90;;;;;;5072423;28;20221;-71
2022/01/18 10:28:31;;;;;;;4.73;2.80;;;7.20;99.90;;;;;;5072937;28;20269;-73
2022/01/18 10:31:01;;;;;;;5.77;3.40;;;7.10;99.90;;;;;;5060324;28;20255;-74
2022/01/18 10:33:35;;;;;;;3.70;2.70;;;7.50;99.90;;;;;;5073004;28;20201;-73
2022/01/18 10:36:10;;;;;;;4.75;2.97;;;9.10;99.90;;;;;;5073019;28;20201;-72
2022/01/18 10:38:38;;;;;;;5.53;3.38;;;10.50;99.90;;;;;;5072923;28;20211;-73
2022/01/18 10:41:28;;;;;;;5.38;2.63;;;10.10;99.90;;;;;;5072665;28;20197;-72
2022/01/18 10:44:06;;;;;;;3.60;2.80;;;7.70;99.90;;;;;;5072875;28;20719;-72
2022/01/18 10:46:35;;;;;;;5.20;3.20;;;7.60;99.90;;;;;;5077931;28;20592;-72
2022/01/18 10:49:04;;;;;;;4.47;2.80;;;7.20;99.90;;;;;;5052889;28;20251;-74
2022/01/18 10:51:33;;;;;;;5.27;2.90;;;6.80;99.90;;;;;;5052723;28;20248;-73
2022/01/18 10:54:02;;;;;;;3.80;2.20;;;6.90;99.90;;;;;;5052459;28;20243;-73
2022/01/18 10:56:38;;;;;;;4.63;2.47;;;7.10;99.90;;;;;;5052545;28;20589;-74
2022/01/18 10:59:05;;;;;;;5.23;2.80;;;7.50;99.90;;;;;;5052700;28;20243;-73
2022/01/18 11:01:32;;;;;;;2.77;2.10;;;8.30;99.90;;;;;;5061477;28;20271;-72
2022/01/18 11:04:08;;;;;;;3.50;2.23;;;7.40;99.90;;;;;;5072118;28;20232;-72
2022/01/18 11:06:36;;;;;;;3.17;2.00;;;7.70;99.90;;;;;;5075173;28;20860;-72
2022/01/18 11:09:09;;;;;;;3.27;2.27;;;10.20;99.90;;;;;;5076758;28;20192;-72
2022/01/18 11:11:42;;;;;;;3.47;2.00;;;10.80;99.90;;;;;;5076470;28;20197;-72
2022/01/18 11:14:09;;;;;;;3.97;2.20;;;9.80;99.90;;;;;;5076536;28;20192;-73
2022/01/18 11:16:40;;;;;;;6.90;2.70;;;8.40;99.90;;;;;;5076021;28;20224;-75
2022/01/18 11:19:17;;;;;;;5.23;2.70;;;7.30;99.90;;;;;;5078351;28;20196;-73
2022/01/18 11:21:45;;;;;;;4.73;3.10;;;6.70;99.90;;;;;;5084046;28;20251;-73
2022/01/18 11:24:11;;;;;;;3.80;2.13;;;6.10;99.90;;;;;;5087040;28;20204;-73
2022/01/18 11:26:39;;;;;;;3.17;1.93;;;5.90;99.90;;;;;;5087150;28;20221;-73
2022/01/18 11:29:07;;;;;;;4.40;2.30;;;5.80;99.90;;;;;;5085266;28;20203;-74
2022/01/18 11:31:34;;;;;;;3.87;2.40;;;6.10;99.90;;;;;;5081777;28;20196;-75
2022/01/18 11:34:01;;;;;;;4.13;2.50;;;6.20;99.90;;;;;;5083882;28;20197;-73
2022/01/18 11:36:33;;;;;;;4.73;2.70;;;5.80;99.90;;;;;;5082989;28;20556;-72
2022/01/18 11:39:06;;;;;;;5.30;2.97;;;5.70;99.90;;;;;;5080979;28;20715;-73
2022/01/18 11:41:35;;;;;;;5.53;2.80;;;5.90;99.90;;;;;;5079499;28;20193;-72
2022/01/18 11:44:13;;;;;;;3.80;2.40;;;6.10;99.90;;;;;;5070101;28;20223;-73
2022/01/18 11:46:48;;;;;;;4.67;3.07;;;6.00;99.90;;;;;;5060055;28;20287;-74
2022/01/18 11:49:19;;;;;;;10.17;7.33;;;6.20;99.90;;;;;;5070653;28;20285;-75
2022/01/18 11:51:50;;;;;;;6.00;3.63;;;6.30;99.90;;;;;;5058938;28;20209;-75
2022/01/18 11:54:31;;;;;;;4.67;2.80;;;6.30;99.90;;;;;;5069797;28;20306;-74
2022/01/18 11:56:59;;;;;;;6.50;2.93;;;6.20;99.90;;;;;;5068421;28;20666;-73
2022/01/18 11:59:28;;;;;;;5.27;2.97;;;5.90;99.90;;;;;;5075482;28;20666;-74
2022/01/18 12:01:56;;;;;;;6.20;3.20;;;6.00;99.90;;;;;;5078203;28;20199;-73
2022/01/18 12:05:07;;;;;;;5.00;2.90;;;6.70;99.90;;;;;;5074464;28;20194;-74
2022/01/18 12:08:03;;;;;;;2.93;2.10;;;12.00;99.90;;;;;;5067176;28;20224;-73
2022/01/18 12:10:48;;;;;;;3.03;1.90;;;11.30;99.90;;;;;;5069074;28;20235;-74
2022/01/18 12:13:44;;;;;;;4.07;2.22;;;15.00;99.90;;;;;;5075146;28;20204;-75
2022/01/18 12:16:25;;;;;;;4.00;2.00;;;16.20;91.40;;;;;;5039512;28;20312;-75
2022/01/18 12:18:57;;;;;;;3.45;1.92;;;16.90;84.60;;;;;;5080751;28;20192;-75
2022/01/18 12:21:27;;;;;;;2.22;1.63;;;18.40;73.70;;;;;;5095118;28;20283;-75
2022/01/18 12:23:57;;;;;;;2.10;1.50;;;18.80;67.00;;;;;;5096000;28;20525;-76
2022/01/18 12:26:33;;;;;;;3.47;1.67;;;15.00;71.10;;;;;;5075086;28;20217;-75
2022/01/18 12:34:51;;;;;;;3.27;2.10;;;8.10;99.90;;;;;;5073882;28;20199;-74
2022/01/18 12:37:39;;;;;;;3.80;2.20;;;7.40;99.90;;;;;;5074863;28;20188;-75
2022/01/18 12:40:11;;;;;;;1.83;1.63;;;7.20;99.90;;;;;;5059028;28;20202;-76
2022/01/18 12:45:26;;;;;;;2.73;1.63;;;7.30;99.90;;;;;;5054997;28;20201;-75
2022/01/18 12:47:58;;;;;;;4.53;1.70;;;7.60;99.90;;;;;;5054715;28;20234;-74
2022/01/18 12:50:28;;;;;;;2.97;1.80;;;7.80;99.90;;;;;;5054712;28;20565;-76
2022/01/18 12:52:57;;;;;;;3.50;2.00;;;7.60;99.90;;;;;;5054679;28;20600;-74
2022/01/18 12:55:28;;;;;;;2.80;2.07;;;7.50;99.90;;;;;;5066521;28;20565;-73
2022/01/18 12:58:02;;;;;;;3.40;2.10;;;7.40;99.90;;;;;;5070379;28;20541;-76
2022/01/18 13:00:30;;;;;;;6.73;2.27;;;7.20;99.90;;;;;;5076766;28;20200;-75
2022/01/18 13:03:00;;;;;;;4.43;2.20;;;7.50;99.90;;;;;;5073395;28;20247;-74
2022/01/18 13:05:38;;;;;;;3.83;2.60;;;7.40;99.90;;;;;;5073995;28;20326;-74
2022/01/18 13:08:06;;;;;;;5.03;2.70;;;7.70;99.90;;;;;;5070106;28;20274;-74
2022/01/18 13:10:40;;;;;;;3.70;3.30;;;7.80;99.90;;;;;;5073408;28;20205;-74
2022/01/18 13:13:09;;;;;;;5.70;2.77;;;7.90;99.90;;;;;;5073503;28;20592;-74
2022/01/18 13:27:04;;;;;;;4.23;3.00;;;7.40;99.90;;;;;;5073436;28;20228;-74
2022/01/18 13:29:31;;;;;;;3.80;2.43;;;7.50;99.90;;;;;;5072520;28;20197;-74
2022/01/18 13:32:04;;;;;;;2.40;2.20;;;7.70;99.90;;;;;;5072999;28;20656;-74
2022/01/18 13:34:33;;;;;;;4.10;2.43;;;7.30;99.90;;;;;;5072783;28;20251;-74
2022/01/18 13:37:03;;;;;;;3.73;2.30;;;7.20;99.90;;;;;;5065255;28;20258;-73
2022/01/18 13:39:32;;;;;;;3.33;2.40;;;7.60;99.90;;;;;;5072914;28;20599;-73
2022/01/18 13:42:01;;;;;;;2.30;1.93;;;7.60;99.90;;;;;;5072969;28;20283;-74
2022/01/18 13:44:29;;;;;;;2.30;1.87;;;7.50;99.90;;;;;;5067432;28;20196;-74
2022/01/18 13:46:56;;;;;;;5.63;1.73;;;7.40;99.90;;;;;;5072303;28;20623;-74
2022/01/18 13:49:25;;;;;;;2.27;1.30;;;7.40;99.90;;;;;;5072869;28;20249;-74
2022/01/18 13:52:03;;;;;;;2.03;1.57;;;7.40;99.90;;;;;;5072126;28;20197;-73
2022/01/18 13:54:47;;;;;;;3.87;2.57;;;7.90;99.90;;;;;;5073176;28;20193;-74
2022/01/18 13:57:16;;;;;;;2.27;1.70;;;8.80;99.90;;;;;;5066012;28;20211;-74
2022/01/18 13:59:43;;;;;;;5.17;3.00;;;8.60;99.90;;;;;;5071117;28;20211;-73
2022/01/18 14:02:12;;;;;;;5.70;2.70;;;8.20;99.90;;;;;;5070746;28;20197;-74
2022/01/18 14:04:40;;;;;;;4.30;2.30;;;7.70;99.90;;;;;;5067718;28;20239;-73